Time;durP1;ratioP1;P1;durP2;ratioP2;P2;SDS_P1;SDS_P2;PMS_P1;PMS_P2;Temp;Humidity;BMP_temperature;BMP_pressure;BME280_temperature;BME280_humidity;BME280_pressure;Samples;Min_cycle;Max_cycle;Signal;HPM_P1;HPM_P2
2023/11/14 00:01:23;;;;;;;8.48;4.78;;;;;;;10.44;100.00;99310.03;6064907;23;20014;-70
2023/11/14 00:03:50;;;;;;;13.43;5.75;;;;;;;10.58;100.00;99341.34;6084764;23;20101;-69
2023/11/14 00:06:16;;;;;;;5.07;4.63;;;;;;;10.19;100.00;99292.63;6065582;23;20104;-70
2023/11/14 00:08:45;;;;;;;5.25;4.85;;;;;;;10.60;100.00;99356.94;6079877;23;20084;-69
2023/11/14 00:11:12;;;;;;;4.95;4.57;;;;;;;10.32;100.00;99311.78;6063054;23;20014;-70
2023/11/14 00:13:38;;;;;;;4.95;4.55;;;;;;;10.58;100.00;99348.34;6072683;23;20088;-69
2023/11/14 00:16:05;;;;;;;5.90;5.30;;;;;;;8.19;100.00;98967.44;6050332;23;20089;-69
2023/11/14 00:18:32;;;;;;;6.75;6.25;;;;;;;10.18;100.00;99315.38;6087737;23;20021;-70
2023/11/14 00:20:58;;;;;;;6.97;6.32;;;;;;;10.51;100.00;99391.75;6054964;23;20468;-70
2023/11/14 00:23:25;;;;;;;6.70;4.55;;;;;;;10.27;100.00;99352.38;6088265;23;20508;-70
2023/11/14 00:25:51;;;;;;;11.50;4.65;;;;;;;10.49;100.00;99398.88;6062417;23;20053;-69
2023/11/14 00:28:18;;;;;;;13.75;4.43;;;;;;;10.52;100.00;99380.28;6089617;23;20013;-68
2023/11/14 00:30:45;;;;;;;5.22;4.65;;;;;;;10.50;100.00;99369.94;6068450;23;20115;-68
2023/11/14 00:33:11;;;;;;;4.93;4.20;;;;;;;10.43;100.00;99380.97;6087982;23;20037;-69
2023/11/14 00:35:38;;;;;;;5.35;4.95;;;;;;;10.30;100.00;99360.03;6067855;23;20026;-69
2023/11/14 00:38:05;;;;;;;5.47;5.05;;;;;;;10.38;100.00;99363.78;6080877;23;20379;-69
2023/11/14 00:40:33;;;;;;;6.05;5.75;;;;;;;10.39;100.00;99362.00;6053375;23;20720;-68
2023/11/14 00:43:00;;;;;;;8.80;5.45;;;;;;;10.26;100.00;99374.28;6083158;23;20089;-68
2023/11/14 00:45:28;;;;;;;6.43;4.60;;;;;;;10.14;100.00;99355.03;6090527;23;20029;-68
2023/11/14 00:47:54;;;;;;;9.57;5.72;;;;;;;10.31;100.00;99349.44;6041928;23;20052;-68
2023/11/14 00:50:23;;;;;;;10.60;5.15;;;;;;;10.68;100.00;99388.69;6055415;23;20085;-68
2023/11/14 00:52:50;;;;;;;6.07;5.40;;;;;;;10.55;100.00;99374.84;6064478;23;20030;-68
2023/11/14 00:55:16;;;;;;;7.65;4.55;;;;;;;10.13;100.00;99300.94;6085224;23;20485;-69
2023/11/14 00:57:43;;;;;;;8.15;4.63;;;;;;;10.54;100.00;99402.00;6056299;23;20042;-68
2023/11/14 01:00:12;;;;;;;7.32;4.70;;;;;;;10.49;100.00;99404.13;6086141;23;20022;-70
2023/11/14 01:02:39;;;;;;;5.97;5.18;;;;;;;10.61;100.00;99398.00;6058073;23;20981;-69
2023/11/14 01:05:06;;;;;;;6.45;4.95;;;;;;;10.58;100.00;99378.06;6086118;23;20780;-69
2023/11/14 01:07:33;;;;;;;5.30;4.10;;;;;;;10.54;100.00;99384.50;6061720;23;20460;-69
2023/11/14 01:09:59;;;;;;;5.65;5.25;;;;;;;10.70;100.00;99384.19;6082604;23;20047;-69
2023/11/14 01:12:26;;;;;;;5.78;5.47;;;;;;;10.70;100.00;99372.84;6050429;23;20048;-69
2023/11/14 01:14:53;;;;;;;8.52;5.70;;;;;;;10.61;100.00;99384.03;6055783;23;20068;-68
2023/11/14 01:17:19;;;;;;;5.28;4.70;;;;;;;10.55;100.00;99395.81;6055755;23;20030;-69
2023/11/14 01:19:49;;;;;;;5.55;5.07;;;;;;;10.44;100.00;99414.94;6088614;23;20097;-69
2023/11/14 01:22:17;;;;;;;6.25;4.53;;;;;;;10.43;100.00;99420.31;6055892;23;20042;-70
2023/11/14 01:24:44;;;;;;;4.68;4.28;;;;;;;10.29;100.00;99403.75;6063367;23;22066;-69
2023/11/14 01:27:11;;;;;;;4.57;4.32;;;;;;;10.38;100.00;99413.63;6058249;23;20127;-69
2023/11/14 01:29:37;;;;;;;5.25;4.82;;;;;;;10.46;100.00;99435.81;6091674;23;20105;-69
2023/11/14 01:32:06;;;;;;;12.95;4.63;;;;;;;9.97;100.00;99361.50;6058072;23;20581;-72
2023/11/14 01:34:34;;;;;;;7.95;6.65;;;;;;;10.44;100.00;99438.53;6080451;23;20110;-68
2023/11/14 01:37:01;;;;;;;8.95;5.80;;;;;;;10.43;100.00;99446.53;6058738;23;20824;-72
2023/11/14 01:39:29;;;;;;;5.15;4.60;;;;;;;10.41;100.00;99454.50;6084332;23;20017;-69
2023/11/14 01:41:55;;;;;;;10.65;5.55;;;;;;;9.92;100.00;99368.81;6068840;23;20056;-69
2023/11/14 01:44:22;;;;;;;9.63;5.03;;;;;;;10.13;100.00;99408.41;6086180;23;20032;-69
2023/11/14 01:46:49;;;;;;;10.57;4.63;;;;;;;10.36;100.00;99460.09;6057119;23;20076;-70
2023/11/14 01:49:16;;;;;;;4.45;4.18;;;;;;;10.18;100.00;99462.22;6095480;23;20053;-69
2023/11/14 01:51:43;;;;;;;5.53;5.03;;;;;;;10.11;100.00;99439.16;6054410;23;20578;-68
2023/11/14 01:54:11;;;;;;;7.70;6.75;;;;;;;10.38;100.00;99471.31;6091668;23;20025;-70
2023/11/14 01:56:41;;;;;;;9.95;6.63;;;;;;;10.46;100.00;99473.38;6057383;23;20082;-70
2023/11/14 01:59:07;;;;;;;10.10;4.85;;;;;;;10.32;100.00;99470.91;6088294;23;20104;-70
2023/11/14 02:01:34;;;;;;;4.85;4.50;;;;;;;10.33;100.00;99481.28;6059556;23;20514;-69
2023/11/14 02:04:07;;;;;;;9.40;5.68;;;;;;;9.95;100.00;99439.38;6086748;23;20030;-69
2023/11/14 02:06:35;;;;;;;11.20;6.35;;;;;;;10.26;100.00;99500.97;6058909;23;20026;-70
2023/11/14 02:09:02;;;;;;;12.75;4.72;;;;;;;9.89;100.00;99426.72;6080948;23;20419;-69
2023/11/14 02:11:29;;;;;;;5.07;4.68;;;;;;;10.51;100.00;99510.63;6063664;23;20036;-69
2023/11/14 02:13:55;;;;;;;6.10;5.32;;;;;;;10.06;100.00;99391.44;6093937;23;20109;-70
2023/11/14 02:16:24;;;;;;;20.23;5.32;;;;;;;10.42;100.00;99458.78;6051353;23;20023;-70
2023/11/14 02:18:50;;;;;;;23.35;5.30;;;;;;;10.38;100.00;99462.59;6089298;23;20032;-70
2023/11/14 02:21:17;;;;;;;10.27;6.07;;;;;;;9.99;100.00;99399.75;6053820;23;20082;-70
2023/11/14 02:23:48;;;;;;;5.75;4.93;;;;;;;10.15;100.00;99422.25;6083115;23;20042;-70
2023/11/14 02:26:14;;;;;;;4.78;4.47;;;;;;;10.31;100.00;99462.19;6088522;23;20033;-69
2023/11/14 02:28:40;;;;;;;12.00;4.43;;;;;;;9.68;100.00;99377.50;6086504;23;20132;-70
2023/11/14 02:31:07;;;;;;;19.38;5.90;;;;;;;10.28;100.00;99467.63;6062571;23;20037;-70
2023/11/14 02:33:37;;;;;;;5.15;4.80;;;;;;;10.45;100.00;99497.09;6085615;23;20080;-69
2023/11/14 02:36:05;;;;;;;9.75;5.50;;;;;;;10.42;100.00;99497.31;6060149;23;20377;-69
2023/11/14 02:38:34;;;;;;;8.80;5.85;;;;;;;9.76;100.00;99390.03;6050612;18;20014;-72
2023/11/14 02:41:03;;;;;;;6.85;5.38;;;;;;;10.44;100.00;99506.75;5997611;23;20046;-72
2023/11/14 02:43:30;;;;;;;6.80;4.45;;;;;;;8.56;100.00;99215.06;6026300;23;20467;-73
2023/11/14 02:45:56;;;;;;;5.28;4.78;;;;;;;10.35;100.00;99520.53;6033652;23;20187;-74
2023/11/14 02:48:22;;;;;;;8.13;5.65;;;;;;;8.99;100.00;99312.34;6049675;23;20373;-74
2023/11/14 02:50:54;;;;;;;4.78;4.57;;;;;;;10.50;100.00;99553.56;6034511;23;20529;-74
2023/11/14 02:53:21;;;;;;;5.57;5.07;;;;;;;9.90;100.00;99463.28;6059554;23;20400;-73
2023/11/14 02:55:52;;;;;;;4.53;4.32;;;;;;;10.37;100.00;99553.56;6054000;23;20763;-74
2023/11/14 02:58:21;;;;;;;20.20;5.95;;;;;;;10.36;100.00;99554.50;6015457;23;20018;-74
2023/11/14 03:00:51;;;;;;;8.00;4.30;;;;;;;10.27;100.00;99557.72;6025277;23;20180;-74
2023/11/14 03:03:21;;;;;;;4.97;4.57;;;;;;;9.49;100.00;99422.44;6027359;23;20099;-73
2023/11/14 03:05:48;;;;;;;5.22;4.50;;;;;;;10.32;100.00;99566.16;6050945;23;20046;-74
2023/11/14 03:08:15;;;;;;;5.30;4.80;;;;;;;10.33;100.00;99557.34;6028145;23;20453;-73
2023/11/14 03:10:42;;;;;;;6.57;5.15;;;;;;;10.28;100.00;99550.69;6049341;23;20140;-73
2023/11/14 03:13:10;;;;;;;16.98;5.57;;;;;;;10.14;100.00;99535.91;6054639;23;20214;-73
2023/11/14 03:15:37;;;;;;;4.35;4.05;;;;;;;10.32;100.00;99560.91;6035552;23;20183;-73
2023/11/14 03:18:03;;;;;;;6.85;5.60;;;;;;;10.37;100.00;99550.09;6049062;23;20050;-73
2023/11/14 03:20:30;;;;;;;7.00;6.05;;;;;;;10.10;100.00;99514.34;6024873;23;20086;-73
2023/11/14 03:23:00;;;;;;;4.85;4.47;;;;;;;10.36;100.00;99558.91;6052918;23;20112;-73
2023/11/14 03:25:27;;;;;;;5.45;4.95;;;;;;;10.27;100.00;99557.72;5999823;23;20023;-74
2023/11/14 03:27:54;;;;;;;6.47;4.72;;;;;;;10.24;100.00;99557.94;6002489;23;20379;-73
2023/11/14 03:30:22;;;;;;;6.43;4.82;;;;;;;9.99;100.00;99532.56;6025593;23;20038;-73
2023/11/14 03:32:48;;;;;;;4.80;4.50;;;;;;;9.58;100.00;99479.44;6018485;23;21596;-73
2023/11/14 03:35:16;;;;;;;15.05;4.80;;;;;;;10.11;100.00;99571.06;6043069;23;20033;-73
2023/11/14 03:37:42;;;;;;;9.52;5.03;;;;;;;10.16;100.00;99586.47;6050496;23;20097;-73
2023/11/14 03:40:09;;;;;;;5.57;5.07;;;;;;;10.14;100.00;99572.63;6023488;23;20378;-73
2023/11/14 03:42:36;;;;;;;6.43;5.78;;;;;;;10.17;100.00;99588.97;6053044;23;20123;-73
2023/11/14 03:45:03;;;;;;;6.95;4.95;;;;;;;10.15;100.00;99587.41;5999268;23;20082;-73
2023/11/14 03:47:30;;;;;;;10.07;4.38;;;;;;;10.26;100.00;99624.22;6029602;23;20030;-73
2023/11/14 03:49:57;;;;;;;15.73;5.35;;;;;;;9.96;100.00;99562.47;6026936;23;20023;-74
2023/11/14 03:52:25;;;;;;;6.57;6.18;;;;;;;10.16;100.00;99584.69;6048123;23;20381;-73
2023/11/14 03:54:52;;;;;;;6.95;5.10;;;;;;;9.93;100.00;99567.91;6050807;23;20037;-74
2023/11/14 03:57:19;;;;;;;12.85;5.57;;;;;;;8.81;100.00;99338.94;6055877;23;20310;-74
2023/11/14 03:59:46;;;;;;;5.13;4.63;;;;;;;9.71;100.00;99502.19;6042998;23;20038;-73
2023/11/14 04:02:13;;;;;;;4.78;4.53;;;;;;;9.80;100.00;99517.25;6050296;23;20092;-73
2023/11/14 04:04:39;;;;;;;10.73;4.60;;;;;;;8.85;100.00;99369.19;6025197;23;20596;-73
2023/11/14 04:07:09;;;;;;;4.93;4.50;;;;;;;10.33;100.00;99628.13;6057674;23;20045;-73
2023/11/14 04:09:39;;;;;;;4.93;4.53;;;;;;;9.36;100.00;99446.00;6029933;23;20442;-73
2023/11/14 04:12:06;;;;;;;8.40;5.07;;;;;;;10.38;100.00;99597.22;5995561;23;20027;-75
2023/11/14 04:14:32;;;;;;;6.57;5.85;;;;;;;10.19;100.00;99560.03;6025484;23;20023;-74
2023/11/14 04:16:59;;;;;;;17.08;5.10;;;;;;;9.84;100.00;99528.38;6024261;23;20301;-73
2023/11/14 04:19:25;;;;;;;5.95;5.07;;;;;;;9.06;100.00;99380.84;6003724;23;20034;-73
2023/11/14 04:21:52;;;;;;;4.40;4.20;;;;;;;10.40;100.00;99580.50;6032839;23;20054;-75
2023/11/14 04:24:18;;;;;;;4.30;4.10;;;;;;;9.79;100.00;99474.50;6040835;23;20032;-73
2023/11/14 04:26:44;;;;;;;4.57;4.28;;;;;;;10.01;100.00;99487.91;6009350;23;20042;-73
2023/11/14 04:29:11;;;;;;;4.95;4.50;;;;;;;9.96;100.00;99490.84;6052459;23;20469;-74
2023/11/14 04:31:37;;;;;;;5.30;4.28;;;;;;;9.90;100.00;99465.06;6046680;23;20034;-74
2023/11/14 04:34:06;;;;;;;5.10;4.60;;;;;;;10.01;100.00;99477.44;6058304;23;20182;-75
2023/11/14 04:36:34;;;;;;;11.32;6.90;;;;;;;10.52;100.00;99569.16;6053050;23;20022;-73
2023/11/14 04:39:01;;;;;;;5.38;4.63;;;;;;;10.05;100.00;99494.63;6019416;23;20497;-73
2023/11/14 04:41:27;;;;;;;6.75;3.97;;;;;;;9.95;100.00;99470.84;6001791;23;20470;-73
2023/11/14 04:43:54;;;;;;;5.43;4.80;;;;;;;10.31;100.00;99519.06;6028559;23;20019;-73
2023/11/14 04:46:20;;;;;;;4.55;4.32;;;;;;;10.41;100.00;99561.22;6051256;23;20666;-74
2023/11/14 04:48:47;;;;;;;16.13;5.05;;;;;;;9.45;100.00;99365.13;6024226;23;20019;-74
2023/11/14 04:51:13;;;;;;;6.50;5.22;;;;;;;10.15;100.00;99487.78;6060812;23;20312;-73
2023/11/14 04:53:40;;;;;;;4.60;4.32;;;;;;;10.70;100.00;99541.63;6006534;23;20375;-73
2023/11/14 04:56:06;;;;;;;7.90;4.97;;;;;;;10.51;100.00;99501.91;6053075;23;20034;-74
2023/11/14 04:58:33;;;;;;;6.32;5.75;;;;;;;10.02;100.00;99421.44;6042494;23;20036;-73
2023/11/14 05:01:02;;;;;;;4.47;4.18;;;;;;;10.48;100.00;99476.72;6055149;23;20030;-74
2023/11/14 05:03:30;;;;;;;4.68;4.38;;;;;;;10.29;100.00;99450.13;6041599;23;20041;-73
2023/11/14 05:05:58;;;;;;;4.60;4.25;;;;;;;10.64;100.00;99502.69;5991153;23;20083;-74
2023/11/14 05:08:24;;;;;;;7.20;5.30;;;;;;;10.65;100.00;99493.06;6027237;23;20355;-75
2023/11/14 05:10:51;;;;;;;4.57;4.38;;;;;;;10.47;100.00;99490.78;6035436;23;20199;-75
2023/11/14 05:13:17;;;;;;;5.15;4.75;;;;;;;10.75;100.00;99523.78;6060255;23;20018;-74
2023/11/14 05:15:44;;;;;;;4.40;4.20;;;;;;;10.54;100.00;99505.16;6026482;23;20030;-74
2023/11/14 05:18:10;;;;;;;6.10;5.18;;;;;;;10.61;100.00;99516.06;6020696;23;20030;-73
2023/11/14 05:20:37;;;;;;;6.78;6.28;;;;;;;10.13;100.00;99451.19;6056053;23;20038;-73
2023/11/14 05:23:03;;;;;;;6.93;5.55;;;;;;;10.71;100.00;99551.19;6034113;23;20019;-74
2023/11/14 05:25:30;;;;;;;5.82;5.38;;;;;;;10.48;100.00;99528.34;5994935;23;20023;-75
2023/11/14 05:27:56;;;;;;;4.80;4.50;;;;;;;10.35;100.00;99487.25;6017891;23;20029;-74
2023/11/14 05:30:23;;;;;;;5.85;5.32;;;;;;;9.49;100.00;99364.81;5990642;23;20032;-74
2023/11/14 05:32:49;;;;;;;15.00;4.55;;;;;;;10.49;100.00;99561.53;6025808;23;20168;-73
2023/11/14 05:35:16;;;;;;;5.32;4.90;;;;;;;10.76;100.00;99596.31;6023664;23;20026;-73
2023/11/14 05:37:44;;;;;;;4.30;4.10;;;;;;;10.71;100.00;99598.41;6031937;23;20074;-73
2023/11/14 05:40:12;;;;;;;5.70;4.40;;;;;;;10.63;100.00;99599.91;6022224;23;20239;-74
2023/11/14 05:42:39;;;;;;;5.95;5.40;;;;;;;10.78;100.00;99609.31;6048271;23;20604;-74
2023/11/14 05:45:07;;;;;;;5.35;5.05;;;;;;;10.66;100.00;99611.00;6030938;23;20082;-73
2023/11/14 05:47:33;;;;;;;4.28;4.07;;;;;;;10.76;100.00;99632.19;6046082;23;20571;-75
2023/11/14 05:50:00;;;;;;;21.80;5.50;;;;;;;10.62;100.00;99612.16;6022635;23;20014;-73
2023/11/14 05:52:26;;;;;;;7.43;5.55;;;;;;;10.89;100.00;99642.69;6021631;23;20046;-74
2023/11/14 05:54:53;;;;;;;7.60;4.82;;;;;;;10.87;100.00;99624.41;6049219;23;20492;-74
2023/11/14 05:57:20;;;;;;;4.70;4.40;;;;;;;10.89;100.00;99604.16;6052752;23;20105;-74
2023/11/14 05:59:49;;;;;;;4.22;4.03;;;;;;;10.51;100.00;99543.88;6022867;23;20494;-76
2023/11/14 06:02:17;;;;;;;8.18;5.35;;;;;;;11.00;100.00;99611.25;5994879;23;20090;-73
2023/11/14 06:04:43;;;;;;;4.65;4.35;;;;;;;10.96;100.00;99615.91;6016571;23;20426;-74
2023/11/14 06:07:10;;;;;;;8.73;5.10;;;;;;;10.95;100.00;99621.25;6000513;23;20035;-75
2023/11/14 06:09:36;;;;;;;4.35;4.15;;;;;;;10.45;100.00;99512.84;5998645;23;20137;-74
2023/11/14 06:12:04;;;;;;;6.32;4.68;;;;;;;10.92;100.00;99616.22;6047098;23;20343;-74
2023/11/14 06:14:30;;;;;;;6.68;6.20;;;;;;;10.47;100.00;99574.72;5996609;23;20303;-74
2023/11/14 06:16:57;;;;;;;7.57;5.07;;;;;;;10.88;100.00;99615.56;6001219;23;20332;-76
2023/11/14 06:19:24;;;;;;;25.23;5.45;;;;;;;10.32;100.00;99508.47;6015730;23;20030;-73
2023/11/14 06:21:51;;;;;;;12.23;4.50;;;;;;;10.35;100.00;99568.56;6036222;23;20177;-74
2023/11/14 06:24:17;;;;;;;10.80;4.93;;;;;;;10.69;100.00;99620.47;6034100;23;20057;-74
2023/11/14 06:26:44;;;;;;;5.75;4.40;;;;;;;9.54;100.00;99433.44;6025604;23;20265;-73
2023/11/14 06:29:10;;;;;;;5.30;5.00;;;;;;;10.56;100.00;99563.59;6001574;23;20114;-72
2023/11/14 06:31:37;;;;;;;10.23;5.18;;;;;;;10.35;100.00;99504.78;6005797;23;20030;-72
2023/11/14 06:34:03;;;;;;;8.40;4.50;;;;;;;9.86;100.00;99433.00;6025324;23;20015;-72
2023/11/14 06:36:30;;;;;;;8.55;5.93;;;;;;;9.63;100.00;99425.91;5997296;23;20247;-75
2023/11/14 06:38:56;;;;;;;8.55;5.90;;;;;;;10.41;100.00;99569.09;6022988;23;20017;-73
2023/11/14 06:41:23;;;;;;;4.95;4.53;;;;;;;10.56;100.00;99612.59;6024428;23;20026;-72
2023/11/14 06:43:49;;;;;;;4.50;4.10;;;;;;;10.78;100.00;99625.91;6009233;23;20022;-74
2023/11/14 06:46:18;;;;;;;6.43;4.90;;;;;;;10.81;100.00;99632.72;6052978;23;20030;-73
2023/11/14 06:48:44;;;;;;;6.43;5.07;;;;;;;10.74;100.00;99608.72;6025177;23;20411;-72
2023/11/14 06:51:11;;;;;;;5.10;4.68;;;;;;;9.93;100.00;99512.03;6035383;23;20082;-74
2023/11/14 06:53:38;;;;;;;9.75;4.53;;;;;;;10.62;100.00;99654.16;6024245;23;20060;-73
2023/11/14 06:56:04;;;;;;;6.50;4.63;;;;;;;10.68;100.00;99634.53;6056070;23;20031;-74
2023/11/14 06:58:34;;;;;;;5.75;5.43;;;;;;;10.48;100.00;99601.78;6046730;23;20473;-72
2023/11/14 07:01:00;;;;;;;16.25;5.72;;;;;;;8.79;100.00;99321.53;6037040;23;20022;-74
2023/11/14 07:03:30;;;;;;;4.60;4.30;;;;;;;10.65;100.00;99625.09;6043273;23;20099;-72
2023/11/14 07:05:57;;;;;;;7.25;5.43;;;;;;;10.11;100.00;99544.84;6008343;23;20088;-72
2023/11/14 07:08:26;;;;;;;8.15;6.30;;;;;;;10.71;100.00;99615.94;6024016;23;20018;-74
2023/11/14 07:10:53;;;;;;;6.93;4.40;;;;;;;10.25;100.00;99543.88;5976121;23;20122;-73
2023/11/14 07:13:19;;;;;;;6.88;3.80;;;;;;;10.62;100.00;99606.91;6007887;23;20426;-73
2023/11/14 07:15:47;;;;;;;4.05;3.85;;;;;;;9.62;100.00;99463.50;6021882;23;20027;-74
2023/11/14 07:18:13;;;;;;;5.43;4.57;;;;;;;10.42;100.00;99574.19;6023759;23;20721;-73
2023/11/14 07:20:40;;;;;;;5.03;4.72;;;;;;;10.76;100.00;99650.56;6018987;23;20414;-72
2023/11/14 07:23:06;;;;;;;30.02;5.75;;;;;;;10.74;100.00;99592.97;6017449;23;20168;-73
2023/11/14 07:25:35;;;;;;;4.53;4.18;;;;;;;10.95;100.00;99639.63;6001201;23;20011;-73
2023/11/14 07:28:02;;;;;;;14.60;4.25;;;;;;;10.43;100.00;99554.09;6056798;23;20034;-74
2023/11/14 07:30:31;;;;;;;6.50;5.75;;;;;;;10.86;100.00;99656.84;6045211;23;20030;-73
2023/11/14 07:32:57;;;;;;;6.68;4.18;;;;;;;10.61;100.00;99622.78;6027682;23;20030;-73
2023/11/14 07:35:26;;;;;;;4.53;4.32;;;;;;;10.88;100.00;99648.88;6050590;23;20369;-74
2023/11/14 07:37:52;;;;;;;11.85;10.93;;;;;;;10.61;100.00;99649.03;5966922;23;20286;-76
2023/11/14 07:40:22;;;;;;;9.63;4.75;;;;;;;9.34;100.00;99475.81;5979775;23;20082;-74
2023/11/14 07:42:49;;;;;;;4.40;4.20;;;;;;;10.91;100.00;99701.16;6051768;23;20034;-74
2023/11/14 07:45:15;;;;;;;6.88;4.20;;;;;;;10.49;100.00;99616.59;6023646;23;20042;-72
2023/11/14 07:47:42;;;;;;;11.95;4.97;;;;;;;10.80;100.00;99643.31;6051971;23;20033;-74
2023/11/14 07:50:08;;;;;;;8.88;5.85;;;;;;;10.76;100.00;99650.56;6017938;23;20067;-75
2023/11/14 07:52:35;;;;;;;6.20;5.57;;;;;;;10.84;100.00;99695.47;6053839;23;20022;-74
2023/11/14 07:55:02;;;;;;;4.53;4.30;;;;;;;9.84;100.00;99538.84;6031789;23;20076;-73
2023/11/14 07:57:32;;;;;;;4.68;4.43;;;;;;;10.29;100.00;99565.50;6033861;23;20043;-76
2023/11/14 07:59:59;;;;;;;6.18;4.30;;;;;;;11.01;100.00;99651.50;6034424;23;20467;-74
2023/11/14 08:02:25;;;;;;;6.90;5.70;;;;;;;11.10;100.00;99641.13;6045429;23;20044;-74
2023/11/14 08:04:53;;;;;;;8.40;4.75;;;;;;;10.69;100.00;99532.09;6007725;23;20055;-74
2023/11/14 08:07:19;;;;;;;4.57;4.18;;;;;;;11.46;100.00;99615.78;6028769;23;20484;-74
2023/11/14 08:09:47;;;;;;;5.68;5.18;;;;;;;11.48;100.00;99613.06;6024793;23;20112;-72
2023/11/14 08:12:13;;;;;;;9.57;5.68;;;;;;;11.51;100.00;99603.19;6004737;23;20026;-76
2023/11/14 08:14:40;;;;;;;11.80;4.90;;;;;;;11.46;100.00;99586.91;6030013;23;20304;-74
2023/11/14 08:17:07;;;;;;;4.95;4.55;;;;;;;11.51;100.00;99602.34;6031977;23;20532;-74
2023/11/14 08:19:33;;;;;;;5.43;5.05;;;;;;;10.89;100.00;99516.69;6061406;23;20076;-72
2023/11/14 08:22:05;;;;;;;9.98;4.43;;;;;;;11.27;100.00;99562.97;6031048;23;20049;-75
2023/11/14 08:24:31;;;;;;;6.88;6.28;;;;;;;10.89;100.00;99507.03;6053639;23;20409;-74
2023/11/14 08:26:58;;;;;;;8.10;4.85;;;;;;;10.51;100.00;99439.78;6053403;23;20118;-75
2023/11/14 08:29:24;;;;;;;7.03;4.80;;;;;;;11.24;100.00;99564.00;6052939;23;20022;-73
2023/11/14 08:31:51;;;;;;;4.72;4.50;;;;;;;11.02;100.00;99551.59;6055898;23;20452;-75
2023/11/14 08:34:17;;;;;;;4.72;4.53;;;;;;;11.52;100.00;99619.78;6060228;23;20323;-72
2023/11/14 08:36:44;;;;;;;5.28;4.90;;;;;;;11.47;100.00;99600.91;6048751;23;20142;-73
2023/11/14 08:39:13;;;;;;;5.97;4.88;;;;;;;11.73;100.00;99628.69;6018004;23;20458;-72
2023/11/14 08:41:40;;;;;;;6.45;4.95;;;;;;;11.40;100.00;99562.88;6020450;23;20179;-73
2023/11/14 08:44:10;;;;;;;7.45;4.70;;;;;;;11.60;100.00;99590.31;6028378;23;20149;-74
2023/11/14 08:46:36;;;;;;;8.90;6.60;;;;;;;11.10;100.00;99524.78;6028618;23;20418;-76
2023/11/14 08:49:07;;;;;;;4.82;4.43;;;;;;;11.58;100.00;99591.25;6045259;23;20269;-74
2023/11/14 08:51:34;;;;;;;5.40;4.90;;;;;;;10.56;100.00;99411.47;6058223;23;20607;-75
2023/11/14 08:54:00;;;;;;;4.82;4.53;;;;;;;11.81;100.00;99593.97;6028244;23;20061;-74
2023/11/14 08:56:29;;;;;;;6.18;5.70;;;;;;;10.86;100.00;99432.91;6057489;23;20038;-75
2023/11/14 08:58:56;;;;;;;5.18;4.80;;;;;;;11.57;100.00;99504.66;6046483;23;20049;-73
2023/11/14 09:01:26;;;;;;;5.55;5.22;;;;;;;11.65;100.00;99518.06;6056517;23;20046;-74
2023/11/14 09:03:53;;;;;;;4.90;4.50;;;;;;;11.02;100.00;99417.69;6054828;23;20046;-73
2023/11/14 09:06:20;;;;;;;7.05;5.30;;;;;;;11.88;100.00;99604.84;6053389;23;20516;-74
2023/11/14 09:08:49;;;;;;;12.82;5.22;;;;;;;11.94;100.00;99617.56;6023357;23;20011;-73
2023/11/14 09:11:15;;;;;;;4.78;4.40;;;;;;;12.02;100.00;99659.91;5998372;23;20023;-73
2023/11/14 09:13:42;;;;;;;4.85;4.60;;;;;;;11.84;100.00;99617.38;6027354;23;20089;-74
2023/11/14 09:16:09;;;;;;;8.30;4.90;;;;;;;11.65;100.00;99614.47;6033148;23;20411;-74
2023/11/14 09:18:38;;;;;;;11.52;6.65;;;;;;;11.58;100.00;99622.78;6055473;23;20317;-73
2023/11/14 09:21:05;;;;;;;4.60;4.30;;;;;;;11.78;100.00;99638.88;6059264;23;20065;-73
2023/11/14 09:23:33;;;;;;;4.85;4.55;;;;;;;11.77;100.00;99621.44;6024944;23;20298;-75
2023/11/14 09:25:59;;;;;;;7.90;4.60;;;;;;;11.67;100.00;99613.41;6052088;23;20061;-72
2023/11/14 09:28:26;;;;;;;10.40;6.32;;;;;;;11.36;100.00;99583.28;6025923;23;20231;-72
2023/11/14 09:30:52;;;;;;;18.65;6.10;;;;;;;11.51;100.00;99597.91;6026331;23;20058;-75
2023/11/14 09:33:19;;;;;;;11.18;4.28;;;;;;;10.86;100.00;99491.50;6020490;23;20025;-74
2023/11/14 09:35:46;;;;;;;5.80;5.30;;;;;;;11.42;100.00;99567.06;6044573;23;20097;-75
2023/11/14 09:38:12;;;;;;;6.93;4.80;;;;;;;11.89;100.00;99615.28;6003118;23;20071;-75
2023/11/14 09:40:38;;;;;;;6.57;6.10;;;;;;;11.80;100.00;99600.16;6053348;23;20801;-76
2023/11/14 09:43:06;;;;;;;4.80;4.50;;;;;;;11.94;100.00;99600.00;6058864;23;20021;-73
2023/11/14 09:45:34;;;;;;;9.10;5.60;;;;;;;11.55;100.00;99573.09;5997210;23;20746;-73
2023/11/14 09:48:04;;;;;;;7.32;4.97;;;;;;;11.85;100.00;99620.88;6019897;23;20034;-74
2023/11/14 09:50:31;;;;;;;5.55;5.28;;;;;;;11.88;100.00;99631.97;5969959;23;20027;-73
2023/11/14 09:52:58;;;;;;;6.55;5.22;;;;;;;11.95;100.00;99656.91;6025958;23;20042;-75
2023/11/14 09:55:25;;;;;;;5.78;4.85;;;;;;;12.09;100.00;99631.38;6027264;23;20042;-71
2023/11/14 09:57:52;;;;;;;5.25;4.72;;;;;;;12.09;100.00;99640.09;5999149;23;20046;-73
2023/11/14 10:00:18;;;;;;;4.70;4.40;;;;;;;12.13;100.00;99631.00;6049111;23;20230;-74
2023/11/14 10:02:45;;;;;;;5.88;5.05;;;;;;;12.18;100.00;99625.38;6024056;23;20023;-71
2023/11/14 10:05:12;;;;;;;6.50;5.05;;;;;;;11.56;100.00;99516.94;6049298;23;20018;-74
2023/11/14 10:07:42;;;;;;;5.45;5.10;;;;;;;11.82;100.00;99593.00;6050876;23;20030;-73
2023/11/14 10:10:11;;;;;;;6.10;5.25;;;;;;;11.56;100.00;99559.00;6029445;23;20034;-75
2023/11/14 10:12:38;;;;;;;7.35;6.65;;;;;;;12.16;100.00;99656.22;6018569;23;20019;-72
2023/11/14 10:15:07;;;;;;;5.50;5.20;;;;;;;12.20;100.00;99659.47;6055867;23;20046;-75
2023/11/14 10:17:48;;;;;;;5.00;4.60;;;;;;;11.54;100.00;99529.38;6026809;23;20370;-73
2023/11/14 10:20:17;;;;;;;4.32;4.13;;;;;;;12.23;100.00;99607.47;6057315;23;20493;-72
2023/11/14 10:22:54;;;;;;;6.97;5.13;;;;;;;12.20;100.00;99626.09;6021955;23;20746;-74
2023/11/14 10:25:32;;;;;;;8.07;4.75;;;;;;;12.26;100.00;99625.63;6051591;23;20026;-74
2023/11/14 10:28:06;;;;;;;6.30;4.80;;;;;;;12.28;100.00;99639.50;6031784;23;20095;-73
2023/11/14 10:30:39;;;;;;;6.22;5.72;;;;;;;12.40;100.00;99629.00;6042693;23;20462;-72
2023/11/14 10:33:06;;;;;;;5.25;4.75;;;;;;;12.38;100.00;99601.00;6034432;23;20568;-73
2023/11/14 10:35:32;;;;;;;6.28;4.95;;;;;;;12.32;100.00;99613.81;6060268;23;20088;-75
2023/11/14 10:38:19;;;;;;;12.00;5.13;;;;;;;12.29;100.00;99619.31;6063853;23;20030;-74
2023/11/14 10:40:53;;;;;;;8.43;5.07;;;;;;;12.26;100.00;99640.59;6029071;23;22855;-75
2023/11/14 10:43:31;;;;;;;5.30;4.90;;;;;;;12.21;100.00;99654.09;6061078;23;20090;-75
2023/11/14 10:46:00;;;;;;;5.55;5.15;;;;;;;12.22;100.00;99695.22;6059379;23;20026;-75
2023/11/14 10:48:30;;;;;;;6.57;6.00;;;;;;;12.19;100.00;99721.78;6025624;23;20041;-74
2023/11/14 10:50:57;;;;;;;5.25;4.95;;;;;;;11.99;100.00;99725.88;6062811;23;20066;-73
2023/11/14 10:53:24;;;;;;;5.70;4.72;;;;;;;12.08;100.00;99761.16;6051438;23;20759;-74
2023/11/14 10:55:51;;;;;;;5.07;4.78;;;;;;;11.65;100.00;99753.75;6042277;23;20027;-75
2023/11/14 10:58:19;;;;;;;21.90;5.18;;;;;;;11.27;100.00;99755.53;6067070;23;20401;-75
2023/11/14 11:00:46;;;;;;;4.65;4.35;;;;;;;11.74;100.00;99860.84;6060583;23;20038;-74
2023/11/14 11:03:13;;;;;;;5.75;5.28;;;;;;;11.28;100.00;99791.31;6063744;23;20017;-75
2023/11/14 11:05:41;;;;;;;11.15;4.80;;;;;;;11.05;100.00;99771.94;6062821;23;20248;-74
2023/11/14 11:08:13;;;;;;;8.50;4.78;;;;;;;10.89;100.00;99731.94;6036005;23;20058;-75
2023/11/14 11:10:42;;;;;;;6.32;4.78;;;;;;;10.72;100.00;99694.56;6051826;23;20182;-75
2023/11/14 11:13:14;;;;;;;5.10;4.80;;;;;;;11.89;100.00;99872.94;6063102;23;20541;-76
2023/11/14 11:15:46;;;;;;;6.35;4.80;;;;;;;11.51;100.00;99766.09;6033726;23;20073;-75
2023/11/14 11:18:13;;;;;;;5.00;4.60;;;;;;;12.12;100.00;99839.72;6060042;23;20030;-76
2023/11/14 11:20:40;;;;;;;4.97;4.70;;;;;;;11.90;100.00;99776.50;6035780;23;20435;-74
2023/11/14 11:23:14;;;;;;;7.68;4.60;;;;;;;12.29;100.00;99792.97;6040397;23;20503;-75
2023/11/14 11:25:42;;;;;;;4.90;4.50;;;;;;;12.21;100.00;99743.53;6066071;23;20018;-74